sensor_id;sensor_type;location;lat;lon;timestamp;P1;durP1;ratioP1;P2;durP2;ratioP2
53281;SDS011;39167;52.794;6.892;2022-11-15T00:00:53;23.50;;;15.65;;
53281;SDS011;39167;52.794;6.892;2022-11-15T00:03:20;22.05;;;14.52;;
53281;SDS011;39167;52.794;6.892;2022-11-15T00:05:47;23.80;;;14.90;;
53281;SDS011;39167;52.794;6.892;2022-11-15T00:08:14;25.65;;;14.45;;
53281;SDS011;39167;52.794;6.892;2022-11-15T00:10:39;23.00;;;14.38;;
53281;SDS011;39167;52.794;6.892;2022-11-15T00:13:06;24.48;;;15.90;;
53281;SDS011;39167;52.794;6.892;2022-11-15T00:15:36;21.65;;;14.60;;
53281;SDS011;39167;52.794;6.892;2022-11-15T00:18:03;25.67;;;14.35;;
53281;SDS011;39167;52.794;6.892;2022-11-15T00:20:30;25.70;;;14.68;;
53281;SDS011;39167;52.794;6.892;2022-11-15T00:22:56;24.13;;;15.73;;
53281;SDS011;39167;52.794;6.892;2022-11-15T00:25:21;24.48;;;16.40;;
53281;SDS011;39167;52.794;6.892;2022-11-15T00:27:47;22.60;;;15.30;;
53281;SDS011;39167;52.794;6.892;2022-11-15T00:30:13;26.25;;;15.77;;
53281;SDS011;39167;52.794;6.892;2022-11-15T00:32:38;24.50;;;15.73;;
53281;SDS011;39167;52.794;6.892;2022-11-15T00:35:04;26.05;;;15.75;;
53281;SDS011;39167;52.794;6.892;2022-11-15T00:37:30;27.35;;;16.33;;
53281;SDS011;39167;52.794;6.892;2022-11-15T00:39:56;28.00;;;17.13;;
53281;SDS011;39167;52.794;6.892;2022-11-15T00:42:21;25.40;;;15.85;;
53281;SDS011;39167;52.794;6.892;2022-11-15T00:44:47;25.70;;;15.95;;
53281;SDS011;39167;52.794;6.892;2022-11-15T00:47:13;28.05;;;16.02;;
53281;SDS011;39167;52.794;6.892;2022-11-15T00:49:38;26.33;;;16.35;;
53281;SDS011;39167;52.794;6.892;2022-11-15T00:52:05;25.42;;;15.70;;
53281;SDS011;39167;52.794;6.892;2022-11-15T00:54:31;28.92;;;16.75;;
53281;SDS011;39167;52.794;6.892;2022-11-15T00:56:57;27.85;;;16.25;;
53281;SDS011;39167;52.794;6.892;2022-11-15T00:59:22;26.95;;;15.15;;
53281;SDS011;39167;52.794;6.892;2022-11-15T01:01:48;23.45;;;14.88;;
53281;SDS011;39167;52.794;6.892;2022-11-15T01:04:14;28.42;;;16.23;;
53281;SDS011;39167;52.794;6.892;2022-11-15T01:06:40;25.85;;;15.70;;
53281;SDS011;39167;52.794;6.892;2022-11-15T01:09:05;26.27;;;16.17;;
53281;SDS011;39167;52.794;6.892;2022-11-15T01:11:31;25.95;;;15.85;;
53281;SDS011;39167;52.794;6.892;2022-11-15T01:13:57;24.95;;;14.88;;
53281;SDS011;39167;52.794;6.892;2022-11-15T01:16:22;26.15;;;15.48;;
53281;SDS011;39167;52.794;6.892;2022-11-15T01:18:48;24.02;;;15.65;;
53281;SDS011;39167;52.794;6.892;2022-11-15T01:21:16;25.23;;;15.85;;
53281;SDS011;39167;52.794;6.892;2022-11-15T01:23:43;25.58;;;15.38;;
53281;SDS011;39167;52.794;6.892;2022-11-15T01:26:11;26.92;;;15.07;;
53281;SDS011;39167;52.794;6.892;2022-11-15T01:28:39;28.88;;;15.90;;
53281;SDS011;39167;52.794;6.892;2022-11-15T01:31:06;28.30;;;16.25;;
53281;SDS011;39167;52.794;6.892;2022-11-15T01:33:36;25.95;;;15.35;;
53281;SDS011;39167;52.794;6.892;2022-11-15T01:36:06;26.65;;;16.70;;
53281;SDS011;39167;52.794;6.892;2022-11-15T01:38:33;26.70;;;15.63;;
53281;SDS011;39167;52.794;6.892;2022-11-15T01:40:59;27.02;;;14.95;;
53281;SDS011;39167;52.794;6.892;2022-11-15T01:43:32;28.92;;;15.88;;
53281;SDS011;39167;52.794;6.892;2022-11-15T01:46:01;25.23;;;14.45;;
53281;SDS011;39167;52.794;6.892;2022-11-15T01:48:34;25.45;;;15.07;;
53281;SDS011;39167;52.794;6.892;2022-11-15T01:51:02;24.83;;;15.55;;
53281;SDS011;39167;52.794;6.892;2022-11-15T01:53:31;28.87;;;15.20;;
53281;SDS011;39167;52.794;6.892;2022-11-15T01:55:59;26.23;;;14.57;;
53281;SDS011;39167;52.794;6.892;2022-11-15T01:58:31;27.75;;;16.25;;
53281;SDS011;39167;52.794;6.892;2022-11-15T02:00:58;28.27;;;16.13;;
53281;SDS011;39167;52.794;6.892;2022-11-15T02:03:25;27.80;;;15.00;;
53281;SDS011;39167;52.794;6.892;2022-11-15T02:05:58;24.83;;;14.00;;
53281;SDS011;39167;52.794;6.892;2022-11-15T02:08:24;24.85;;;15.32;;
53281;SDS011;39167;52.794;6.892;2022-11-15T02:10:49;27.88;;;15.75;;
53281;SDS011;39167;52.794;6.892;2022-11-15T02:13:15;36.35;;;16.25;;
53281;SDS011;39167;52.794;6.892;2022-11-15T02:15:56;27.17;;;15.40;;
53281;SDS011;39167;52.794;6.892;2022-11-15T02:18:52;35.92;;;16.33;;
53281;SDS011;39167;52.794;6.892;2022-11-15T02:21:31;30.20;;;15.57;;
53281;SDS011;39167;52.794;6.892;2022-11-15T02:24:51;29.63;;;16.48;;
53281;SDS011;39167;52.794;6.892;2022-11-15T02:30:23;32.72;;;15.80;;
53281;SDS011;39167;52.794;6.892;2022-11-15T02:36:01;30.30;;;16.42;;
53281;SDS011;39167;52.794;6.892;2022-11-15T02:41:37;28.38;;;15.60;;
53281;SDS011;39167;52.794;6.892;2022-11-15T02:44:13;32.35;;;16.95;;
53281;SDS011;39167;52.794;6.892;2022-11-15T02:46:50;31.27;;;16.52;;
53281;SDS011;39167;52.794;6.892;2022-11-15T02:49:38;33.60;;;16.63;;
53281;SDS011;39167;52.794;6.892;2022-11-15T02:52:07;27.92;;;15.82;;
53281;SDS011;39167;52.794;6.892;2022-11-15T02:54:33;29.45;;;16.17;;
53281;SDS011;39167;52.794;6.892;2022-11-15T02:57:04;29.40;;;17.20;;
53281;SDS011;39167;52.794;6.892;2022-11-15T02:59:48;35.08;;;18.23;;
53281;SDS011;39167;52.794;6.892;2022-11-15T03:07:56;29.48;;;16.60;;
53281;SDS011;39167;52.794;6.892;2022-11-15T03:11:08;35.83;;;16.13;;
53281;SDS011;39167;52.794;6.892;2022-11-15T03:16:10;26.85;;;15.27;;
53281;SDS011;39167;52.794;6.892;2022-11-15T03:18:47;30.17;;;17.00;;
53281;SDS011;39167;52.794;6.892;2022-11-15T03:21:19;31.90;;;17.42;;
53281;SDS011;39167;52.794;6.892;2022-11-15T03:23:47;31.35;;;17.77;;
53281;SDS011;39167;52.794;6.892;2022-11-15T03:26:15;30.98;;;16.90;;
53281;SDS011;39167;52.794;6.892;2022-11-15T03:28:49;35.35;;;18.75;;
53281;SDS011;39167;52.794;6.892;2022-11-15T03:31:21;35.88;;;18.13;;
53281;SDS011;39167;52.794;6.892;2022-11-15T03:34:09;29.65;;;16.83;;
53281;SDS011;39167;52.794;6.892;2022-11-15T03:36:39;36.85;;;19.70;;
53281;SDS011;39167;52.794;6.892;2022-11-15T03:39:05;33.05;;;18.30;;
53281;SDS011;39167;52.794;6.892;2022-11-15T03:41:37;34.88;;;18.73;;
53281;SDS011;39167;52.794;6.892;2022-11-15T03:44:31;36.17;;;18.85;;
53281;SDS011;39167;52.794;6.892;2022-11-15T03:47:17;34.55;;;18.90;;
53281;SDS011;39167;52.794;6.892;2022-11-15T03:49:58;35.15;;;19.73;;
53281;SDS011;39167;52.794;6.892;2022-11-15T03:52:30;39.22;;;19.65;;
53281;SDS011;39167;52.794;6.892;2022-11-15T03:54:57;41.33;;;21.63;;
53281;SDS011;39167;52.794;6.892;2022-11-15T03:57:26;45.22;;;22.63;;
53281;SDS011;39167;52.794;6.892;2022-11-15T03:59:52;40.33;;;22.48;;
53281;SDS011;39167;52.794;6.892;2022-11-15T04:02:18;38.40;;;21.55;;
53281;SDS011;39167;52.794;6.892;2022-11-15T04:04:43;50.05;;;25.40;;
53281;SDS011;39167;52.794;6.892;2022-11-15T04:07:09;41.75;;;23.05;;
53281;SDS011;39167;52.794;6.892;2022-11-15T04:09:35;37.80;;;22.25;;
53281;SDS011;39167;52.794;6.892;2022-11-15T04:12:20;48.72;;;23.92;;
53281;SDS011;39167;52.794;6.892;2022-11-15T04:15:17;48.97;;;25.05;;
53281;SDS011;39167;52.794;6.892;2022-11-15T04:17:50;48.40;;;23.70;;
53281;SDS011;39167;52.794;6.892;2022-11-15T04:20:21;56.25;;;27.75;;
53281;SDS011;39167;52.794;6.892;2022-11-15T04:23:17;51.80;;;26.02;;
53281;SDS011;39167;52.794;6.892;2022-11-15T04:28:36;62.08;;;28.30;;
53281;SDS011;39167;52.794;6.892;2022-11-15T04:31:24;53.72;;;28.25;;
53281;SDS011;39167;52.794;6.892;2022-11-15T04:33:50;50.92;;;28.67;;
53281;SDS011;39167;52.794;6.892;2022-11-15T04:36:16;59.47;;;27.38;;
53281;SDS011;39167;52.794;6.892;2022-11-15T04:39:00;61.78;;;28.98;;
53281;SDS011;39167;52.794;6.892;2022-11-15T04:41:26;56.45;;;27.23;;
53281;SDS011;39167;52.794;6.892;2022-11-15T04:43:51;56.88;;;28.27;;
53281;SDS011;39167;52.794;6.892;2022-11-15T04:46:17;49.78;;;25.80;;
53281;SDS011;39167;52.794;6.892;2022-11-15T04:48:43;52.70;;;27.40;;
53281;SDS011;39167;52.794;6.892;2022-11-15T04:51:08;49.30;;;26.67;;
53281;SDS011;39167;52.794;6.892;2022-11-15T04:53:34;60.25;;;27.95;;
53281;SDS011;39167;52.794;6.892;2022-11-15T04:56:00;56.08;;;27.70;;
53281;SDS011;39167;52.794;6.892;2022-11-15T04:58:25;54.97;;;27.58;;
53281;SDS011;39167;52.794;6.892;2022-11-15T05:00:51;54.95;;;27.98;;
53281;SDS011;39167;52.794;6.892;2022-11-15T05:03:17;51.92;;;27.15;;
53281;SDS011;39167;52.794;6.892;2022-11-15T05:06:01;54.58;;;27.63;;
53281;SDS011;39167;52.794;6.892;2022-11-15T05:08:27;49.00;;;26.40;;
53281;SDS011;39167;52.794;6.892;2022-11-15T05:10:52;50.55;;;25.27;;
53281;SDS011;39167;52.794;6.892;2022-11-15T05:13:18;49.95;;;25.00;;
53281;SDS011;39167;52.794;6.892;2022-11-15T05:15:44;49.22;;;26.45;;
53281;SDS011;39167;52.794;6.892;2022-11-15T05:18:09;58.40;;;28.73;;
53281;SDS011;39167;52.794;6.892;2022-11-15T05:20:35;47.75;;;26.55;;
53281;SDS011;39167;52.794;6.892;2022-11-15T05:23:01;49.67;;;26.55;;
53281;SDS011;39167;52.794;6.892;2022-11-15T05:25:27;46.15;;;24.88;;
53281;SDS011;39167;52.794;6.892;2022-11-15T05:27:53;46.42;;;26.27;;
53281;SDS011;39167;52.794;6.892;2022-11-15T05:30:18;43.83;;;25.13;;
53281;SDS011;39167;52.794;6.892;2022-11-15T05:32:44;47.63;;;25.23;;
53281;SDS011;39167;52.794;6.892;2022-11-15T05:35:12;46.55;;;24.50;;
53281;SDS011;39167;52.794;6.892;2022-11-15T05:37:54;50.28;;;23.80;;
53281;SDS011;39167;52.794;6.892;2022-11-15T05:40:20;42.22;;;23.58;;
53281;SDS011;39167;52.794;6.892;2022-11-15T05:42:45;47.60;;;24.23;;
53281;SDS011;39167;52.794;6.892;2022-11-15T05:45:12;42.30;;;23.48;;
53281;SDS011;39167;52.794;6.892;2022-11-15T05:47:37;43.22;;;24.05;;
53281;SDS011;39167;52.794;6.892;2022-11-15T05:50:05;42.67;;;22.30;;
53281;SDS011;39167;52.794;6.892;2022-11-15T05:52:32;40.70;;;23.30;;
53281;SDS011;39167;52.794;6.892;2022-11-15T05:55:02;40.80;;;23.38;;
53281;SDS011;39167;52.794;6.892;2022-11-15T05:57:28;37.75;;;22.70;;
53281;SDS011;39167;52.794;6.892;2022-11-15T05:59:54;40.42;;;23.23;;
53281;SDS011;39167;52.794;6.892;2022-11-15T06:02:20;44.08;;;22.80;;
53281;SDS011;39167;52.794;6.892;2022-11-15T06:04:46;39.33;;;23.23;;
53281;SDS011;39167;52.794;6.892;2022-11-15T06:07:12;40.28;;;22.20;;
53281;SDS011;39167;52.794;6.892;2022-11-15T06:09:37;37.60;;;22.25;;
53281;SDS011;39167;52.794;6.892;2022-11-15T06:12:03;38.58;;;21.83;;
53281;SDS011;39167;52.794;6.892;2022-11-15T06:14:29;37.70;;;23.10;;
53281;SDS011;39167;52.794;6.892;2022-11-15T06:16:55;37.88;;;22.45;;
53281;SDS011;39167;52.794;6.892;2022-11-15T06:19:20;37.08;;;22.42;;
53281;SDS011;39167;52.794;6.892;2022-11-15T06:21:46;35.90;;;22.75;;
53281;SDS011;39167;52.794;6.892;2022-11-15T06:24:12;35.25;;;21.83;;
53281;SDS011;39167;52.794;6.892;2022-11-15T06:26:37;33.58;;;21.30;;
53281;SDS011;39167;52.794;6.892;2022-11-15T06:29:03;39.78;;;22.02;;
53281;SDS011;39167;52.794;6.892;2022-11-15T06:31:30;34.70;;;21.52;;
53281;SDS011;39167;52.794;6.892;2022-11-15T06:33:55;35.08;;;21.25;;
53281;SDS011;39167;52.794;6.892;2022-11-15T06:36:21;40.50;;;20.95;;
53281;SDS011;39167;52.794;6.892;2022-11-15T06:38:47;34.33;;;21.23;;
53281;SDS011;39167;52.794;6.892;2022-11-15T06:41:13;36.35;;;21.77;;
53281;SDS011;39167;52.794;6.892;2022-11-15T06:43:40;36.70;;;21.42;;
53281;SDS011;39167;52.794;6.892;2022-11-15T06:46:06;34.45;;;21.40;;
53281;SDS011;39167;52.794;6.892;2022-11-15T06:48:32;35.50;;;21.08;;
53281;SDS011;39167;52.794;6.892;2022-11-15T06:50:59;35.42;;;21.20;;
53281;SDS011;39167;52.794;6.892;2022-11-15T06:53:26;36.40;;;21.45;;
53281;SDS011;39167;52.794;6.892;2022-11-15T06:55:52;35.70;;;22.63;;
53281;SDS011;39167;52.794;6.892;2022-11-15T06:58:18;34.53;;;21.25;;
53281;SDS011;39167;52.794;6.892;2022-11-15T07:00:45;34.95;;;20.30;;
53281;SDS011;39167;52.794;6.892;2022-11-15T07:03:11;32.92;;;19.20;;
53281;SDS011;39167;52.794;6.892;2022-11-15T07:05:37;32.55;;;19.17;;
53281;SDS011;39167;52.794;6.892;2022-11-15T07:08:02;32.97;;;19.88;;
53281;SDS011;39167;52.794;6.892;2022-11-15T07:10:28;38.05;;;20.63;;
53281;SDS011;39167;52.794;6.892;2022-11-15T07:12:55;29.83;;;19.13;;
53281;SDS011;39167;52.794;6.892;2022-11-15T07:15:22;35.53;;;20.30;;
53281;SDS011;39167;52.794;6.892;2022-11-15T07:17:49;37.47;;;20.95;;
53281;SDS011;39167;52.794;6.892;2022-11-15T07:20:15;38.15;;;20.42;;
53281;SDS011;39167;52.794;6.892;2022-11-15T07:22:41;33.70;;;20.98;;
53281;SDS011;39167;52.794;6.892;2022-11-15T07:25:08;30.25;;;20.48;;
53281;SDS011;39167;52.794;6.892;2022-11-15T07:27:34;34.08;;;20.52;;
53281;SDS011;39167;52.794;6.892;2022-11-15T07:30:00;32.03;;;20.27;;
53281;SDS011;39167;52.794;6.892;2022-11-15T07:32:26;31.60;;;21.30;;
53281;SDS011;39167;52.794;6.892;2022-11-15T07:34:52;31.27;;;21.00;;
53281;SDS011;39167;52.794;6.892;2022-11-15T07:37:18;37.75;;;20.67;;
53281;SDS011;39167;52.794;6.892;2022-11-15T07:39:44;32.88;;;20.73;;
53281;SDS011;39167;52.794;6.892;2022-11-15T07:42:09;34.63;;;20.65;;
53281;SDS011;39167;52.794;6.892;2022-11-15T07:44:54;33.03;;;21.00;;
53281;SDS011;39167;52.794;6.892;2022-11-15T07:47:19;28.48;;;19.13;;
53281;SDS011;39167;52.794;6.892;2022-11-15T07:49:45;31.75;;;19.77;;
53281;SDS011;39167;52.794;6.892;2022-11-15T07:52:12;31.75;;;20.65;;
53281;SDS011;39167;52.794;6.892;2022-11-15T07:54:38;29.77;;;19.13;;
53281;SDS011;39167;52.794;6.892;2022-11-15T07:57:04;30.98;;;19.02;;
53281;SDS011;39167;52.794;6.892;2022-11-15T07:59:32;29.52;;;19.50;;
53281;SDS011;39167;52.794;6.892;2022-11-15T08:01:57;33.67;;;20.30;;
53281;SDS011;39167;52.794;6.892;2022-11-15T08:04:23;29.48;;;19.70;;
53281;SDS011;39167;52.794;6.892;2022-11-15T08:06:49;32.90;;;19.33;;
53281;SDS011;39167;52.794;6.892;2022-11-15T08:09:14;36.53;;;18.33;;
53281;SDS011;39167;52.794;6.892;2022-11-15T08:11:40;32.22;;;19.15;;
53281;SDS011;39167;52.794;6.892;2022-11-15T08:14:06;35.92;;;19.27;;
53281;SDS011;39167;52.794;6.892;2022-11-15T08:16:32;43.25;;;20.25;;
53281;SDS011;39167;52.794;6.892;2022-11-15T08:18:58;36.30;;;21.00;;
53281;SDS011;39167;52.794;6.892;2022-11-15T08:21:23;41.47;;;20.88;;
53281;SDS011;39167;52.794;6.892;2022-11-15T08:23:49;43.63;;;21.95;;
53281;SDS011;39167;52.794;6.892;2022-11-15T08:26:15;37.60;;;22.10;;
53281;SDS011;39167;52.794;6.892;2022-11-15T08:28:41;43.85;;;22.25;;
53281;SDS011;39167;52.794;6.892;2022-11-15T08:31:11;43.28;;;22.60;;
53281;SDS011;39167;52.794;6.892;2022-11-15T08:33:39;40.63;;;22.80;;
53281;SDS011;39167;52.794;6.892;2022-11-15T08:36:05;43.60;;;22.88;;
53281;SDS011;39167;52.794;6.892;2022-11-15T08:38:31;35.33;;;22.50;;
53281;SDS011;39167;52.794;6.892;2022-11-15T08:41:01;35.90;;;22.80;;
53281;SDS011;39167;52.794;6.892;2022-11-15T08:43:29;35.22;;;23.88;;
53281;SDS011;39167;52.794;6.892;2022-11-15T08:45:55;33.45;;;23.10;;
53281;SDS011;39167;52.794;6.892;2022-11-15T08:48:22;41.03;;;24.08;;
53281;SDS011;39167;52.794;6.892;2022-11-15T08:50:47;37.17;;;23.27;;
53281;SDS011;39167;52.794;6.892;2022-11-15T08:53:13;36.35;;;22.55;;
53281;SDS011;39167;52.794;6.892;2022-11-15T08:55:40;39.45;;;24.88;;
53281;SDS011;39167;52.794;6.892;2022-11-15T08:58:06;34.70;;;23.33;;
53281;SDS011;39167;52.794;6.892;2022-11-15T09:00:32;32.35;;;22.02;;
53281;SDS011;39167;52.794;6.892;2022-11-15T09:02:58;37.30;;;23.73;;
53281;SDS011;39167;52.794;6.892;2022-11-15T09:05:24;32.50;;;22.00;;
53281;SDS011;39167;52.794;6.892;2022-11-15T09:07:53;38.60;;;23.33;;
53281;SDS011;39167;52.794;6.892;2022-11-15T09:10:20;36.38;;;22.20;;
53281;SDS011;39167;52.794;6.892;2022-11-15T09:12:46;35.30;;;23.10;;
53281;SDS011;39167;52.794;6.892;2022-11-15T09:15:13;35.03;;;22.70;;
53281;SDS011;39167;52.794;6.892;2022-11-15T09:17:40;34.42;;;23.45;;
53281;SDS011;39167;52.794;6.892;2022-11-15T09:20:06;35.60;;;23.33;;
53281;SDS011;39167;52.794;6.892;2022-11-15T09:22:32;36.08;;;23.88;;
53281;SDS011;39167;52.794;6.892;2022-11-15T09:24:58;38.40;;;24.52;;
53281;SDS011;39167;52.794;6.892;2022-11-15T09:27:28;35.75;;;23.42;;
53281;SDS011;39167;52.794;6.892;2022-11-15T09:29:54;34.85;;;23.45;;
53281;SDS011;39167;52.794;6.892;2022-11-15T09:32:20;34.67;;;23.38;;
53281;SDS011;39167;52.794;6.892;2022-11-15T09:34:48;31.92;;;22.77;;
53281;SDS011;39167;52.794;6.892;2022-11-15T09:37:14;34.58;;;22.80;;
53281;SDS011;39167;52.794;6.892;2022-11-15T09:39:39;33.58;;;21.67;;
53281;SDS011;39167;52.794;6.892;2022-11-15T09:50:11;26.85;;;20.65;;
53281;SDS011;39167;52.794;6.892;2022-11-15T09:52:39;26.30;;;20.00;;
53281;SDS011;39167;52.794;6.892;2022-11-15T09:55:13;32.53;;;21.23;;
53281;SDS011;39167;52.794;6.892;2022-11-15T10:01:05;30.85;;;21.45;;
53281;SDS011;39167;52.794;6.892;2022-11-15T10:03:36;32.00;;;22.08;;
53281;SDS011;39167;52.794;6.892;2022-11-15T10:11:44;28.80;;;20.35;;
53281;SDS011;39167;52.794;6.892;2022-11-15T10:16:46;42.27;;;19.97;;
53281;SDS011;39167;52.794;6.892;2022-11-15T10:19:49;33.80;;;19.27;;
53281;SDS011;39167;52.794;6.892;2022-11-15T10:22:21;28.83;;;18.73;;
53281;SDS011;39167;52.794;6.892;2022-11-15T10:25:17;28.70;;;18.85;;
53281;SDS011;39167;52.794;6.892;2022-11-15T10:27:53;33.28;;;18.65;;
53281;SDS011;39167;52.794;6.892;2022-11-15T10:30:21;30.02;;;16.67;;
53281;SDS011;39167;52.794;6.892;2022-11-15T10:32:48;34.15;;;16.40;;
53281;SDS011;39167;52.794;6.892;2022-11-15T10:37:51;20.40;;;15.65;;
53281;SDS011;39167;52.794;6.892;2022-11-15T10:42:42;26.80;;;16.40;;
53281;SDS011;39167;52.794;6.892;2022-11-15T10:45:41;29.25;;;16.50;;
53281;SDS011;39167;52.794;6.892;2022-11-15T10:50:38;27.80;;;17.60;;
53281;SDS011;39167;52.794;6.892;2022-11-15T10:53:15;19.92;;;13.77;;
53281;SDS011;39167;52.794;6.892;2022-11-15T10:55:49;24.15;;;14.25;;
53281;SDS011;39167;52.794;6.892;2022-11-15T11:01:27;27.75;;;14.73;;
53281;SDS011;39167;52.794;6.892;2022-11-15T11:06:27;17.27;;;11.35;;
53281;SDS011;39167;52.794;6.892;2022-11-15T11:08:55;16.05;;;11.77;;
53281;SDS011;39167;52.794;6.892;2022-11-15T11:11:22;16.45;;;10.32;;
53281;SDS011;39167;52.794;6.892;2022-11-15T11:13:48;12.32;;;9.07;;
53281;SDS011;39167;52.794;6.892;2022-11-15T11:21:26;12.13;;;8.60;;
53281;SDS011;39167;52.794;6.892;2022-11-15T11:29:37;8.55;;;5.50;;
53281;SDS011;39167;52.794;6.892;2022-11-15T11:35:30;12.27;;;6.10;;
53281;SDS011;39167;52.794;6.892;2022-11-15T11:38:24;8.77;;;6.15;;
53281;SDS011;39167;52.794;6.892;2022-11-15T11:44:03;9.80;;;6.00;;
53281;SDS011;39167;52.794;6.892;2022-11-15T11:46:49;10.20;;;5.90;;
53281;SDS011;39167;52.794;6.892;2022-11-15T11:49:38;7.68;;;5.45;;
53281;SDS011;39167;52.794;6.892;2022-11-15T11:52:14;10.07;;;5.90;;
53281;SDS011;39167;52.794;6.892;2022-11-15T11:54:53;10.38;;;5.38;;
53281;SDS011;39167;52.794;6.892;2022-11-15T12:00:18;7.45;;;4.70;;
53281;SDS011;39167;52.794;6.892;2022-11-15T12:05:58;10.27;;;4.72;;
53281;SDS011;39167;52.794;6.892;2022-11-15T12:09:00;8.73;;;4.43;;
53281;SDS011;39167;52.794;6.892;2022-11-15T12:11:54;7.55;;;4.15;;
53281;SDS011;39167;52.794;6.892;2022-11-15T12:17:08;12.00;;;3.70;;
53281;SDS011;39167;52.794;6.892;2022-11-15T12:19:36;11.90;;;4.43;;
53281;SDS011;39167;52.794;6.892;2022-11-15T12:24:50;10.07;;;3.83;;
53281;SDS011;39167;52.794;6.892;2022-11-15T12:27:36;11.85;;;4.47;;
53281;SDS011;39167;52.794;6.892;2022-11-15T12:30:11;11.82;;;4.20;;
53281;SDS011;39167;52.794;6.892;2022-11-15T12:32:49;18.83;;;4.43;;
53281;SDS011;39167;52.794;6.892;2022-11-15T12:35:39;8.63;;;3.35;;
53281;SDS011;39167;52.794;6.892;2022-11-15T12:38:10;6.40;;;2.90;;
53281;SDS011;39167;52.794;6.892;2022-11-15T12:40:38;8.33;;;3.47;;
53281;SDS011;39167;52.794;6.892;2022-11-15T12:43:40;32.38;;;5.93;;
53281;SDS011;39167;52.794;6.892;2022-11-15T12:46:19;31.92;;;5.28;;
53281;SDS011;39167;52.794;6.892;2022-11-15T12:49:02;17.60;;;4.72;;
53281;SDS011;39167;52.794;6.892;2022-11-15T13:17:45;5.25;;;1.88;;
53281;SDS011;39167;52.794;6.892;2022-11-15T13:30:54;6.38;;;2.20;;
53281;SDS011;39167;52.794;6.892;2022-11-15T13:33:33;8.35;;;2.30;;
53281;SDS011;39167;52.794;6.892;2022-11-15T13:36:02;5.70;;;2.58;;
53281;SDS011;39167;52.794;6.892;2022-11-15T13:38:32;3.80;;;2.22;;
53281;SDS011;39167;52.794;6.892;2022-11-15T13:41:00;5.53;;;2.88;;
53281;SDS011;39167;52.794;6.892;2022-11-15T13:43:42;5.72;;;2.70;;
53281;SDS011;39167;52.794;6.892;2022-11-15T13:48:46;33.72;;;4.50;;
53281;SDS011;39167;52.794;6.892;2022-11-15T13:53:42;19.55;;;4.80;;
53281;SDS011;39167;52.794;6.892;2022-11-15T13:56:13;41.15;;;6.25;;
53281;SDS011;39167;52.794;6.892;2022-11-15T13:58:41;18.88;;;4.43;;
53281;SDS011;39167;52.794;6.892;2022-11-15T14:01:08;13.35;;;4.97;;
53281;SDS011;39167;52.794;6.892;2022-11-15T14:03:46;26.88;;;4.75;;
53281;SDS011;39167;52.794;6.892;2022-11-15T14:06:18;7.85;;;3.53;;
53281;SDS011;39167;52.794;6.892;2022-11-15T14:11:36;9.55;;;4.32;;
53281;SDS011;39167;52.794;6.892;2022-11-15T14:14:14;12.00;;;3.90;;
53281;SDS011;39167;52.794;6.892;2022-11-15T14:16:44;11.82;;;4.60;;
53281;SDS011;39167;52.794;6.892;2022-11-15T14:19:33;7.05;;;4.50;;
53281;SDS011;39167;52.794;6.892;2022-11-15T14:22:09;6.55;;;4.30;;
53281;SDS011;39167;52.794;6.892;2022-11-15T14:24:42;6.95;;;4.20;;
53281;SDS011;39167;52.794;6.892;2022-11-15T14:29:42;6.00;;;3.60;;
53281;SDS011;39167;52.794;6.892;2022-11-15T14:32:16;6.90;;;4.30;;
53281;SDS011;39167;52.794;6.892;2022-11-15T14:34:44;8.93;;;3.80;;
53281;SDS011;39167;52.794;6.892;2022-11-15T14:37:24;8.43;;;3.95;;
53281;SDS011;39167;52.794;6.892;2022-11-15T14:39:51;7.63;;;4.30;;
53281;SDS011;39167;52.794;6.892;2022-11-15T14:42:18;6.45;;;4.15;;
53281;SDS011;39167;52.794;6.892;2022-11-15T14:44:45;8.75;;;4.30;;
53281;SDS011;39167;52.794;6.892;2022-11-15T14:47:11;9.77;;;4.97;;
53281;SDS011;39167;52.794;6.892;2022-11-15T14:49:37;19.67;;;14.75;;
53281;SDS011;39167;52.794;6.892;2022-11-15T14:52:07;16.95;;;9.43;;
53281;SDS011;39167;52.794;6.892;2022-11-15T14:54:50;14.18;;;6.32;;
53281;SDS011;39167;52.794;6.892;2022-11-15T14:57:16;9.25;;;5.75;;
53281;SDS011;39167;52.794;6.892;2022-11-15T14:59:41;12.38;;;6.30;;
53281;SDS011;39167;52.794;6.892;2022-11-15T15:02:09;8.18;;;5.68;;
53281;SDS011;39167;52.794;6.892;2022-11-15T15:04:41;10.57;;;5.32;;
53281;SDS011;39167;52.794;6.892;2022-11-15T15:07:06;10.70;;;5.45;;
53281;SDS011;39167;52.794;6.892;2022-11-15T15:09:32;9.60;;;5.75;;
53281;SDS011;39167;52.794;6.892;2022-11-15T15:11:58;9.20;;;5.00;;
53281;SDS011;39167;52.794;6.892;2022-11-15T15:14:24;8.50;;;5.10;;
53281;SDS011;39167;52.794;6.892;2022-11-15T15:16:49;7.43;;;4.72;;
53281;SDS011;39167;52.794;6.892;2022-11-15T15:19:15;7.47;;;4.60;;
53281;SDS011;39167;52.794;6.892;2022-11-15T15:21:41;7.00;;;4.47;;
53281;SDS011;39167;52.794;6.892;2022-11-15T15:24:08;7.22;;;3.95;;
53281;SDS011;39167;52.794;6.892;2022-11-15T15:26:40;8.20;;;3.97;;
53281;SDS011;39167;52.794;6.892;2022-11-15T15:29:06;6.90;;;3.60;;
53281;SDS011;39167;52.794;6.892;2022-11-15T15:31:33;5.60;;;3.58;;
53281;SDS011;39167;52.794;6.892;2022-11-15T15:34:00;5.13;;;3.58;;
53281;SDS011;39167;52.794;6.892;2022-11-15T15:36:26;7.68;;;3.65;;
53281;SDS011;39167;52.794;6.892;2022-11-15T15:38:51;9.18;;;3.60;;
53281;SDS011;39167;52.794;6.892;2022-11-15T15:41:18;6.13;;;3.40;;
53281;SDS011;39167;52.794;6.892;2022-11-15T15:43:44;5.28;;;2.67;;
53281;SDS011;39167;52.794;6.892;2022-11-15T15:46:11;4.32;;;2.38;;
53281;SDS011;39167;52.794;6.892;2022-11-15T15:48:40;4.20;;;2.47;;
53281;SDS011;39167;52.794;6.892;2022-11-15T15:51:06;3.47;;;1.90;;
53281;SDS011;39167;52.794;6.892;2022-11-15T15:53:32;4.85;;;2.42;;
53281;SDS011;39167;52.794;6.892;2022-11-15T15:55:58;5.40;;;2.30;;
53281;SDS011;39167;52.794;6.892;2022-11-15T15:58:24;3.42;;;2.03;;
53281;SDS011;39167;52.794;6.892;2022-11-15T16:00:50;3.72;;;2.00;;
53281;SDS011;39167;52.794;6.892;2022-11-15T16:03:16;4.78;;;1.90;;
53281;SDS011;39167;52.794;6.892;2022-11-15T16:05:42;5.20;;;1.98;;
53281;SDS011;39167;52.794;6.892;2022-11-15T16:08:40;4.85;;;1.60;;
53281;SDS011;39167;52.794;6.892;2022-11-15T16:10:59;7.68;;;2.08;;
53281;SDS011;39167;52.794;6.892;2022-11-15T16:13:25;4.32;;;1.70;;
53281;SDS011;39167;52.794;6.892;2022-11-15T16:15:52;4.88;;;2.40;;
53281;SDS011;39167;52.794;6.892;2022-11-15T16:18:19;5.40;;;2.10;;
53281;SDS011;39167;52.794;6.892;2022-11-15T16:20:46;4.18;;;2.00;;
53281;SDS011;39167;52.794;6.892;2022-11-15T16:23:15;4.70;;;2.22;;
53281;SDS011;39167;52.794;6.892;2022-11-15T16:25:49;4.45;;;2.35;;
53281;SDS011;39167;52.794;6.892;2022-11-15T16:28:27;5.22;;;2.40;;
53281;SDS011;39167;52.794;6.892;2022-11-15T16:31:04;5.47;;;2.25;;
53281;SDS011;39167;52.794;6.892;2022-11-15T16:33:33;6.68;;;2.38;;
53281;SDS011;39167;52.794;6.892;2022-11-15T16:35:58;6.25;;;2.47;;
53281;SDS011;39167;52.794;6.892;2022-11-15T16:38:24;6.53;;;2.50;;
53281;SDS011;39167;52.794;6.892;2022-11-15T16:40:50;6.90;;;2.67;;
53281;SDS011;39167;52.794;6.892;2022-11-15T16:43:15;3.80;;;2.00;;
53281;SDS011;39167;52.794;6.892;2022-11-15T16:45:41;4.70;;;1.80;;
53281;SDS011;39167;52.794;6.892;2022-11-15T16:48:10;3.65;;;2.10;;
53281;SDS011;39167;52.794;6.892;2022-11-15T16:50:56;5.97;;;2.30;;
53281;SDS011;39167;52.794;6.892;2022-11-15T16:53:23;6.38;;;2.58;;